createdAt,value
2023-04-16T05:02:55.483Z,7.81
2023-04-16T05:07:56.974Z,7.91
2023-04-16T05:12:58.478Z,7.84
2023-04-16T05:17:59.934Z,7.81
2023-04-16T05:23:01.396Z,7.85
2023-04-16T05:28:02.862Z,7.85
2023-04-16T05:33:04.320Z,7.90
2023-04-16T05:38:07.080Z,7.90
2023-04-16T05:43:08.541Z,7.84
2023-04-16T05:48:10.422Z,7.79
2023-04-16T05:53:15.457Z,7.71
2023-04-16T05:58:16.928Z,7.73
2023-04-16T06:03:18.489Z,7.74
2023-04-16T06:08:20.010Z,7.83
2023-04-16T06:13:21.644Z,7.93
2023-04-16T06:18:23.387Z,8.05
2023-04-16T06:23:24.861Z,8.18
2023-04-16T06:28:26.344Z,8.37
2023-04-16T06:33:27.825Z,8.54
2023-04-16T06:38:29.258Z,8.77
2023-04-16T06:43:33.335Z,9.01
2023-04-16T06:48:34.780Z,9.22
2023-04-16T06:53:37.446Z,9.44
2023-04-16T06:58:38.928Z,9.64
2023-04-16T07:03:40.658Z,9.86
2023-04-16T07:08:42.231Z,10.06
2023-04-16T07:13:43.684Z,10.28
2023-04-16T07:18:45.435Z,10.50
2023-04-16T07:23:46.902Z,10.71
2023-04-16T07:28:48.337Z,10.95
2023-04-16T07:33:49.958Z,11.19
2023-04-16T07:38:51.447Z,11.43
2023-04-16T07:43:52.972Z,11.66
2023-04-16T07:48:54.412Z,11.83
2023-04-16T07:53:55.867Z,11.93
2023-04-16T07:58:58.346Z,12.05
2023-04-16T08:04:04.889Z,12.00
2023-04-16T08:09:06.420Z,12.06
2023-04-16T08:14:08.244Z,12.18
2023-04-16T08:19:09.923Z,12.26
2023-04-16T08:24:11.797Z,12.32
2023-04-16T08:29:13.451Z,12.32
2023-04-16T08:34:15.196Z,12.40
2023-04-16T08:39:16.783Z,12.46
2023-04-16T08:44:26.727Z,12.51
2023-04-16T08:49:28.729Z,12.59
2023-04-16T08:54:46.450Z,12.66
2023-04-16T09:00:00.919Z,12.70
2023-04-16T09:05:05.132Z,12.67
2023-04-16T09:10:08.191Z,12.82
2023-04-16T09:15:11.368Z,13.08
2023-04-16T09:20:12.936Z,13.23
2023-04-16T09:25:14.920Z,13.29
2023-04-16T09:30:22.956Z,13.29
2023-04-16T09:35:24.481Z,13.35
2023-04-16T09:40:30.402Z,13.26
2023-04-16T09:45:32.656Z,13.25
2023-04-16T09:50:34.234Z,13.27
2023-04-16T09:55:35.803Z,13.31
2023-04-16T10:00:42.213Z,13.48
2023-04-16T10:05:45.319Z,13.68
2023-04-16T10:10:47.131Z,13.80
2023-04-16T10:15:49.846Z,13.92
2023-04-16T10:20:51.775Z,13.94
2023-04-16T10:25:56.418Z,14.12
2023-04-16T10:31:01.359Z,14.21
2023-04-16T10:36:14.065Z,14.20
2023-04-16T10:41:15.500Z,14.32
2023-04-16T10:46:17.655Z,14.29
2023-04-16T10:51:33.819Z,14.33
2023-04-16T10:56:36.958Z,14.42
2023-04-16T11:01:42.961Z,14.53
2023-04-16T11:07:01.854Z,14.63
2023-04-16T11:12:07.483Z,14.70
2023-04-16T11:17:09.778Z,14.94
2023-04-16T11:22:17.472Z,15.12
2023-04-16T11:27:19.160Z,15.22
2023-04-16T11:32:22.471Z,15.17
2023-04-16T11:37:36.690Z,15.12
2023-04-16T11:42:43.363Z,15.01
2023-04-16T11:47:51.900Z,15.16
2023-04-16T11:52:56.006Z,15.42
2023-04-16T11:57:57.699Z,15.58
2023-04-16T12:02:59.362Z,15.72
2023-04-16T12:08:03.528Z,15.83
2023-04-16T12:13:11.412Z,15.86
2023-04-16T12:18:12.986Z,15.88
2023-04-16T12:23:33.882Z,15.95
2023-04-16T12:28:38.374Z,16.03
2023-04-16T12:33:39.922Z,15.86
2023-04-16T12:38:41.423Z,15.81
2023-04-16T12:43:42.869Z,15.82
2023-04-16T12:48:44.585Z,15.99
2023-04-16T12:53:46.124Z,16.04
2023-04-16T12:58:50.551Z,15.95
2023-04-16T13:03:52.387Z,16.02
2023-04-16T13:08:54.018Z,16.08
2023-04-16T13:13:55.655Z,16.84
2023-04-16T13:18:57.076Z,17.78
2023-04-16T13:23:59.237Z,18.14
2023-04-16T13:29:00.794Z,18.10
2023-04-16T13:34:03.445Z,17.92
2023-04-16T13:39:10.576Z,17.79
2023-04-16T13:44:12.200Z,17.57
2023-04-16T13:49:14.387Z,17.29
2023-04-16T13:54:15.910Z,16.88
2023-04-16T13:59:18.164Z,16.46
2023-04-16T14:04:19.766Z,16.24
2023-04-16T14:09:21.273Z,15.83
2023-04-16T14:14:22.765Z,15.51
2023-04-16T14:19:24.265Z,15.30
2023-04-16T14:24:25.974Z,15.27
2023-04-16T14:29:27.483Z,15.44
2023-04-16T14:34:29.091Z,15.58
2023-04-16T14:39:30.955Z,15.57
2023-04-16T14:44:32.790Z,15.63
2023-04-16T14:49:34.645Z,15.85
2023-04-16T14:54:36.128Z,16.05
2023-04-16T14:59:37.573Z,15.90
2023-04-16T15:04:39.306Z,16.27
2023-04-16T15:09:40.922Z,18.11
2023-04-16T15:14:43.074Z,19.02
2023-04-16T15:19:44.542Z,18.37
2023-04-16T15:24:46.078Z,17.16
2023-04-16T15:29:49.275Z,16.35
2023-04-16T15:34:50.856Z,15.59
2023-04-16T15:39:52.279Z,14.89
2023-04-16T15:44:53.781Z,14.47
2023-04-16T15:49:55.306Z,14.39
2023-04-16T15:54:56.818Z,14.27
2023-04-16T16:05:03.237Z,14.17
2023-04-16T16:10:06.037Z,14.15
2023-04-16T16:15:08.036Z,14.06
2023-04-16T16:20:10.430Z,13.99
2023-04-16T16:25:12.048Z,13.84
2023-04-16T16:30:13.772Z,13.75
2023-04-16T16:35:15.409Z,13.69
2023-04-16T16:40:16.890Z,13.60
2023-04-16T16:45:18.513Z,13.54
2023-04-16T16:50:20.176Z,13.42
2023-04-16T16:55:21.831Z,13.26
2023-04-16T17:00:23.255Z,13.12
2023-04-16T17:05:24.709Z,12.99
2023-04-16T17:10:26.272Z,12.88
2023-04-16T17:15:27.869Z,12.78
2023-04-16T17:20:29.511Z,12.68
2023-04-16T17:25:31.182Z,12.59
2023-04-16T17:30:32.632Z,12.52
2023-04-16T17:35:34.149Z,12.52
2023-04-16T17:40:35.818Z,12.50
2023-04-16T17:45:37.310Z,12.41
2023-04-16T17:50:39.650Z,12.27
2023-04-16T17:55:50.238Z,12.02
2023-04-16T18:00:51.712Z,11.76
2023-04-16T18:05:53.176Z,11.57
2023-04-16T18:10:57.785Z,11.49
2023-04-16T18:15:59.207Z,11.46
2023-04-16T18:21:00.641Z,11.43
2023-04-16T18:26:02.583Z,11.47
2023-04-16T18:31:06.594Z,11.47
2023-04-16T18:36:08.102Z,11.50
2023-04-16T18:41:19.698Z,11.48
2023-04-16T18:46:21.208Z,11.43
2023-04-16T18:51:22.728Z,11.41
2023-04-16T18:56:24.191Z,11.41
2023-04-16T19:01:25.733Z,11.44
2023-04-16T19:06:27.740Z,11.49
2023-04-16T19:11:29.179Z,11.53
2023-04-16T19:16:30.758Z,11.54
2023-04-16T19:21:32.471Z,11.40
2023-04-16T19:26:34.050Z,11.33
2023-04-16T19:31:35.742Z,11.28
2023-04-16T19:36:37.180Z,11.28
2023-04-16T19:41:38.623Z,11.24
2023-04-16T19:46:40.204Z,11.23
2023-04-16T19:51:41.626Z,11.20
2023-04-16T19:56:43.260Z,11.17
2023-04-16T20:01:45.061Z,11.20
2023-04-16T20:06:46.600Z,11.23
2023-04-16T20:11:48.037Z,11.24
2023-04-16T20:16:49.714Z,11.28
2023-04-16T20:21:51.922Z,11.30
2023-04-16T20:26:53.369Z,11.32
2023-04-16T20:31:54.872Z,11.36
2023-04-16T20:36:57.878Z,11.39
2023-04-16T20:42:00.777Z,11.39
2023-04-16T20:47:02.216Z,11.32
2023-04-16T20:52:04.698Z,11.23
2023-04-16T20:57:06.334Z,11.18
2023-04-16T21:02:07.985Z,11.18
2023-04-16T21:07:09.566Z,11.20
2023-04-16T21:12:11.171Z,11.19
2023-04-16T21:17:12.620Z,11.22
2023-04-16T21:22:14.109Z,11.17
2023-04-16T21:27:15.632Z,11.13
2023-04-16T21:32:17.182Z,11.14
2023-04-16T21:37:18.655Z,11.13
2023-04-16T21:42:20.290Z,11.14
2023-04-16T21:47:21.814Z,11.16
2023-04-16T21:52:23.264Z,11.15
2023-04-16T21:57:24.691Z,11.12
